createdAt,value
2018-08-10T00:00:24.524Z,70.80
2018-08-10T00:03:29.052Z,71.00
2018-08-10T00:06:33.465Z,71.10
2018-08-10T00:09:37.898Z,72.00
2018-08-10T00:12:42.389Z,71.50
2018-08-10T00:15:46.793Z,71.80
2018-08-10T00:18:51.258Z,72.00
2018-08-10T00:21:55.668Z,72.70
2018-08-10T00:25:00.176Z,72.30
2018-08-10T00:28:04.678Z,72.10
2018-08-10T00:31:09.256Z,71.30
2018-08-10T00:34:13.817Z,71.10
2018-08-10T00:37:18.238Z,69.40
2018-08-10T00:40:24.142Z,67.70
2018-08-10T00:43:28.603Z,67.60
2018-08-10T00:46:33.233Z,66.70
2018-08-10T00:49:37.697Z,66.60
2018-08-10T00:52:42.692Z,65.80
2018-08-10T00:55:47.220Z,65.60
2018-08-10T00:58:51.677Z,66.70
2018-08-10T01:01:56.167Z,65.90
2018-08-10T01:05:00.695Z,66.50
2018-08-10T01:08:05.221Z,67.00
2018-08-10T01:11:09.721Z,68.10
2018-08-10T01:14:14.194Z,67.70
2018-08-10T01:17:18.696Z,68.10
2018-08-10T01:20:24.181Z,68.40
2018-08-10T01:23:28.677Z,68.30
2018-08-10T01:26:33.196Z,68.60
2018-08-10T01:29:37.723Z,69.40
2018-08-10T01:32:42.250Z,69.20
2018-08-10T01:35:46.710Z,69.00
2018-08-10T01:38:51.183Z,68.80
2018-08-10T01:41:55.725Z,68.30
2018-08-10T01:45:00.331Z,68.60
2018-08-10T01:48:04.830Z,69.40
2018-08-10T01:51:09.327Z,69.70
2018-08-10T01:54:13.827Z,70.30
2018-08-10T01:57:18.354Z,70.50
2018-08-10T02:00:22.842Z,70.50
2018-08-10T02:03:27.302Z,70.60
2018-08-10T02:06:31.828Z,70.00
2018-08-10T02:09:36.355Z,69.60
2018-08-10T02:12:41.561Z,68.70
2018-08-10T02:15:46.054Z,69.70
2018-08-10T02:18:50.549Z,69.50
2018-08-10T02:21:55.081Z,70.00
2018-08-10T02:24:59.522Z,69.90
2018-08-10T02:28:04.026Z,70.30
2018-08-10T02:31:08.873Z,70.50
2018-08-10T02:34:13.332Z,70.30
2018-08-10T02:37:17.909Z,70.40
2018-08-10T02:40:23.356Z,70.20
2018-08-10T02:43:27.814Z,70.10
2018-08-10T02:46:32.287Z,69.50
2018-08-10T02:49:36.830Z,70.20
2018-08-10T02:52:41.475Z,70.40
2018-08-10T02:55:45.882Z,70.60
2018-08-10T02:58:50.408Z,70.40
2018-08-10T03:01:54.899Z,71.60
2018-08-10T03:04:59.359Z,71.20
2018-08-10T03:08:03.883Z,71.80
2018-08-10T03:11:08.482Z,70.40
2018-08-10T03:14:12.988Z,70.10
2018-08-10T03:17:17.470Z,70.50
2018-08-10T03:20:21.905Z,69.90
2018-08-10T03:23:26.419Z,69.70
2018-08-10T03:26:30.918Z,69.50
2018-08-10T03:29:35.739Z,69.30
2018-08-10T03:32:40.298Z,69.70
2018-08-10T03:35:44.730Z,69.00
2018-08-10T03:38:49.350Z,68.90
2018-08-10T03:41:53.825Z,68.30
2018-08-10T03:44:58.297Z,68.00
2018-08-10T03:48:02.729Z,68.40
2018-08-10T03:51:07.230Z,68.30
2018-08-10T03:54:11.717Z,68.80
2018-08-10T03:57:16.198Z,69.10
2018-08-10T04:00:20.665Z,70.40
2018-08-10T04:03:25.133Z,70.10
2018-08-10T04:06:29.586Z,70.10
2018-08-10T04:09:34.093Z,69.90
2018-08-10T04:12:38.971Z,70.60
2018-08-10T04:15:43.454Z,70.50
2018-08-10T04:18:47.878Z,70.90
2018-08-10T04:21:52.272Z,71.70
2018-08-10T04:24:56.695Z,72.30
2018-08-10T04:28:01.130Z,72.90
2018-08-10T04:31:05.583Z,72.60
2018-08-10T04:34:10.014Z,71.10
2018-08-10T04:37:14.481Z,71.80
2018-08-10T04:40:18.950Z,71.80
2018-08-10T04:43:23.470Z,71.30
2018-08-10T04:46:27.918Z,72.00
2018-08-10T04:49:32.345Z,71.70
2018-08-10T04:52:36.837Z,71.90
2018-08-10T04:55:41.370Z,73.00
2018-08-10T04:58:45.895Z,72.40
2018-08-10T05:01:50.410Z,73.20
2018-08-10T05:04:54.857Z,73.00
2018-08-10T05:07:59.331Z,73.70
2018-08-10T05:11:03.844Z,73.40
2018-08-10T05:14:08.527Z,72.80
2018-08-10T05:17:12.953Z,73.50
2018-08-10T05:20:17.474Z,73.80
2018-08-10T05:23:21.946Z,72.90
2018-08-10T05:26:26.407Z,73.50
2018-08-10T05:29:30.875Z,72.70
2018-08-10T05:32:35.272Z,73.00
2018-08-10T05:35:39.738Z,72.80
2018-08-10T05:38:44.220Z,73.00
2018-08-10T05:41:48.745Z,70.90
2018-08-10T05:44:53.270Z,71.70
2018-08-10T05:47:57.726Z,71.30
2018-08-10T05:51:02.167Z,70.60
2018-08-10T05:54:07.254Z,70.30
2018-08-10T05:57:11.706Z,69.90
2018-08-10T06:00:16.157Z,70.70
2018-08-10T06:03:20.595Z,69.40
2018-08-10T06:06:25.169Z,69.30
2018-08-10T06:09:29.681Z,68.40
2018-08-10T06:12:34.185Z,69.60
2018-08-10T06:15:38.618Z,68.00
2018-08-10T06:18:49.750Z,67.10
2018-08-10T06:21:54.194Z,67.70
2018-08-10T06:24:58.644Z,67.50
2018-08-10T06:28:03.178Z,67.60
2018-08-10T06:31:07.711Z,69.10
2018-08-10T06:34:12.182Z,63.90
2018-08-10T06:37:16.645Z,59.60
2018-08-10T06:40:21.186Z,56.50
2018-08-10T06:43:25.713Z,53.00
2018-08-10T06:46:30.154Z,52.90
2018-08-10T06:49:34.661Z,54.70
2018-08-10T06:52:39.187Z,56.00
2018-08-10T06:55:43.784Z,57.20
2018-08-10T06:58:48.150Z,56.90
2018-08-10T07:01:52.594Z,55.60
2018-08-10T07:04:57.088Z,56.30
2018-08-10T07:08:01.614Z,56.40
2018-08-10T07:11:06.141Z,55.70
2018-08-10T07:14:10.663Z,57.10
2018-08-10T07:17:15.189Z,55.50
2018-08-10T07:20:19.669Z,56.50
2018-08-10T07:23:24.138Z,55.70
2018-08-10T07:26:28.578Z,55.00
2018-08-10T07:29:33.090Z,54.40
2018-08-10T07:32:37.570Z,55.40
2018-08-10T07:35:41.995Z,53.70
2018-08-10T07:38:46.474Z,52.20
2018-08-10T07:41:50.915Z,52.60
2018-08-10T07:44:55.336Z,51.40
2018-08-10T07:47:59.793Z,50.00
2018-08-10T07:51:04.256Z,50.10
2018-08-10T07:54:08.766Z,49.50
2018-08-10T07:57:13.207Z,49.20
2018-08-10T08:00:17.735Z,48.00
2018-08-10T08:03:22.253Z,49.80
2018-08-10T08:06:26.661Z,48.60
2018-08-10T08:09:31.249Z,48.90
2018-08-10T08:12:35.736Z,48.40
2018-08-10T08:15:40.225Z,48.00
2018-08-10T08:18:45.021Z,46.30
2018-08-10T08:22:10.366Z,49.00
2018-08-10T08:25:14.834Z,47.30
2018-08-10T08:28:22.429Z,47.50
2018-08-10T08:31:26.917Z,47.80
2018-08-10T08:34:31.451Z,48.70
2018-08-10T08:37:35.899Z,48.60
2018-08-10T08:40:40.437Z,46.50
2018-08-10T08:46:01.613Z,44.10
2018-08-10T08:49:05.902Z,44.40
2018-08-10T08:52:10.407Z,44.40
2018-08-10T08:55:30.054Z,44.10
2018-08-10T08:58:35.086Z,43.80
2018-08-10T09:01:39.515Z,45.20
2018-08-10T09:05:06.637Z,45.10
2018-08-10T09:08:11.100Z,43.70
2018-08-10T09:11:15.550Z,41.70
2018-08-10T09:15:09.331Z,43.50
2018-08-10T09:18:13.960Z,42.80
2018-08-10T09:21:18.432Z,45.10
2018-08-10T09:24:22.877Z,42.60
2018-08-10T09:27:27.337Z,43.40
2018-08-10T09:30:31.859Z,41.10
2018-08-10T09:33:36.318Z,40.90
2018-08-10T09:36:40.761Z,43.00
2018-08-10T09:39:45.245Z,39.70
2018-08-10T09:42:49.757Z,41.50
2018-08-10T09:45:54.189Z,39.10
2018-08-10T09:48:58.669Z,39.60
2018-08-10T09:52:03.153Z,40.40
2018-08-10T09:55:23.793Z,43.60
2018-08-10T09:58:28.258Z,43.80
2018-08-10T10:01:37.803Z,44.60
2018-08-10T10:04:42.327Z,43.00
2018-08-10T10:07:46.986Z,45.50
2018-08-10T10:10:51.489Z,43.80
2018-08-10T10:13:56.007Z,43.20
2018-08-10T10:17:00.518Z,41.50
2018-08-10T10:20:05.670Z,39.10
2018-08-10T10:23:10.138Z,40.20
2018-08-10T10:26:14.663Z,40.60
2018-08-10T10:29:19.084Z,41.50
2018-08-10T10:32:23.580Z,41.40
2018-08-10T10:35:28.061Z,40.00
2018-08-10T10:38:32.520Z,41.50
2018-08-10T10:41:36.975Z,38.00
2018-08-10T10:44:41.422Z,37.30
2018-08-10T10:47:47.224Z,39.90
2018-08-10T10:50:51.819Z,39.60
2018-08-10T10:53:56.209Z,41.10
2018-08-10T10:57:00.768Z,40.60
2018-08-10T11:00:07.374Z,41.50
2018-08-10T11:03:11.880Z,41.30
2018-08-10T11:06:16.355Z,42.60
2018-08-10T11:09:20.786Z,42.40
2018-08-10T11:12:25.275Z,44.10
2018-08-10T11:15:29.729Z,44.50
2018-08-10T11:18:34.173Z,42.70
2018-08-10T11:21:38.648Z,45.40
2018-08-10T11:24:43.078Z,45.70
2018-08-10T11:27:47.518Z,46.50
2018-08-10T11:30:51.997Z,44.90
2018-08-10T11:33:56.553Z,43.90
2018-08-10T11:37:01.050Z,43.40
2018-08-10T11:40:09.358Z,40.80
2018-08-10T11:43:13.809Z,42.70
2018-08-10T11:46:18.790Z,41.40
2018-08-10T11:49:23.213Z,40.70
2018-08-10T11:52:27.729Z,41.00
2018-08-10T11:55:32.122Z,42.20
2018-08-10T11:58:36.645Z,44.10
2018-08-10T12:01:41.073Z,43.60
2018-08-10T12:04:45.548Z,42.30
2018-08-10T12:07:49.992Z,45.30
2018-08-10T12:10:54.439Z,45.90
2018-08-10T12:13:58.877Z,42.40
2018-08-10T12:17:03.369Z,40.40
2018-08-10T12:20:07.879Z,44.00
2018-08-10T12:23:12.343Z,45.50
2018-08-10T12:26:16.782Z,44.80
2018-08-10T12:29:21.225Z,43.20
2018-08-10T12:32:25.713Z,44.90
2018-08-10T12:35:30.207Z,47.40
2018-08-10T12:38:34.661Z,44.00
2018-08-10T12:41:39.391Z,43.60
2018-08-10T12:44:43.838Z,44.10
2018-08-10T12:47:48.363Z,42.20
2018-08-10T12:50:52.735Z,40.10
2018-08-10T12:53:57.190Z,39.90
2018-08-10T12:57:01.961Z,39.10
2018-08-10T13:00:10.667Z,38.60
2018-08-10T13:03:15.165Z,40.20
2018-08-10T13:06:19.666Z,39.90
2018-08-10T13:09:24.118Z,39.60
2018-08-10T13:12:28.600Z,39.00
2018-08-10T13:15:33.068Z,39.10
2018-08-10T13:18:37.594Z,39.80
2018-08-10T13:21:42.072Z,38.40
2018-08-10T13:24:46.544Z,39.60
2018-08-10T13:27:50.964Z,41.90
2018-08-10T13:30:55.492Z,38.20
2018-08-10T13:34:00.018Z,40.60
2018-08-10T13:37:04.480Z,41.70
2018-08-10T13:40:08.986Z,39.40
2018-08-10T13:43:13.493Z,39.30
2018-08-10T13:46:17.950Z,38.80
2018-08-10T13:49:22.441Z,37.30
2018-08-10T13:52:26.968Z,35.80
2018-08-10T13:55:31.446Z,38.10
2018-08-10T13:58:35.944Z,37.90
2018-08-10T14:01:40.378Z,36.60
2018-08-10T14:04:44.876Z,35.10
2018-08-10T14:07:49.398Z,37.00
2018-08-10T14:10:53.887Z,40.00
2018-08-10T14:13:58.369Z,37.90
2018-08-10T14:17:02.809Z,36.70
2018-08-10T14:20:07.920Z,36.50
2018-08-10T14:23:12.346Z,37.30
2018-08-10T14:26:16.801Z,38.70
2018-08-10T14:29:21.297Z,39.00
2018-08-10T14:32:25.741Z,36.70
2018-08-10T14:35:30.226Z,34.30
2018-08-10T14:38:34.756Z,36.80
2018-08-10T14:41:39.298Z,36.50
2018-08-10T14:44:43.803Z,37.30
2018-08-10T14:47:48.261Z,35.30
2018-08-10T14:50:52.781Z,38.30
2018-08-10T14:53:57.202Z,36.90
2018-08-10T14:57:01.703Z,34.70
2018-08-10T15:00:10.942Z,34.80
2018-08-10T15:03:15.328Z,36.60
2018-08-10T15:06:19.794Z,37.90
2018-08-10T15:09:24.261Z,37.40
2018-08-10T15:12:28.920Z,37.20
2018-08-10T15:15:33.158Z,38.60
2018-08-10T15:18:37.679Z,38.50
2018-08-10T15:21:42.211Z,37.50
2018-08-10T15:24:46.636Z,37.50
2018-08-10T15:27:51.151Z,35.20
2018-08-10T15:30:55.686Z,37.80
2018-08-10T15:34:00.186Z,37.30
2018-08-10T15:37:04.737Z,35.80
2018-08-10T15:40:11.833Z,35.60
2018-08-10T15:43:16.350Z,37.50
2018-08-10T15:46:20.853Z,38.90
2018-08-10T15:49:25.268Z,37.80
2018-08-10T15:52:29.730Z,37.10
2018-08-10T15:55:34.350Z,39.00
2018-08-10T15:58:38.772Z,38.60
2018-08-10T16:01:43.242Z,39.60
2018-08-10T16:04:47.726Z,38.20
2018-08-10T16:07:52.236Z,39.20
2018-08-10T16:10:56.751Z,40.90
2018-08-10T16:14:01.201Z,37.10
2018-08-10T16:17:05.723Z,36.80
2018-08-10T16:20:13.782Z,36.60
2018-08-10T16:23:18.360Z,38.20
2018-08-10T16:26:22.880Z,39.90
2018-08-10T16:29:27.349Z,39.70
2018-08-10T16:32:31.908Z,42.20
2018-08-10T16:35:36.325Z,44.00
2018-08-10T16:38:40.784Z,44.10
2018-08-10T16:41:45.284Z,40.90
2018-08-10T16:44:49.731Z,40.30
2018-08-10T16:47:54.266Z,41.90
2018-08-10T16:50:58.682Z,40.20
2018-08-10T16:54:37.421Z,41.60
2018-08-10T16:57:42.918Z,39.90
2018-08-10T17:00:47.321Z,40.30
2018-08-10T17:03:51.759Z,40.40
2018-08-10T17:06:56.196Z,38.30
2018-08-10T17:10:00.701Z,40.40
2018-08-10T17:13:05.125Z,38.50
2018-08-10T17:16:09.522Z,39.20
2018-08-10T17:19:13.973Z,42.00
2018-08-10T17:22:18.369Z,40.40
2018-08-10T17:25:22.836Z,40.00
2018-08-10T17:28:27.294Z,41.20
2018-08-10T17:31:31.821Z,45.10
2018-08-10T17:34:36.281Z,47.90
2018-08-10T17:37:41.533Z,49.10
2018-08-10T17:40:45.981Z,49.80
2018-08-10T17:43:50.434Z,51.70
2018-08-10T17:46:54.966Z,52.50
2018-08-10T17:49:59.387Z,52.60
2018-08-10T17:53:03.920Z,52.70
2018-08-10T17:56:08.343Z,53.60
2018-08-10T17:59:12.954Z,53.80
2018-08-10T18:02:17.483Z,53.70
2018-08-10T18:05:22.038Z,54.40
2018-08-10T18:08:26.445Z,53.70
2018-08-10T18:11:30.878Z,54.00
2018-08-10T18:14:35.337Z,55.00
2018-08-10T18:17:40.573Z,54.90
2018-08-10T18:20:45.014Z,55.50
2018-08-10T18:23:49.421Z,55.60
2018-08-10T18:26:53.875Z,55.60
2018-08-10T18:29:58.327Z,56.00
2018-08-10T18:33:02.802Z,56.20
2018-08-10T18:36:07.301Z,55.90
2018-08-10T18:39:14.165Z,56.50
2018-08-10T18:42:18.584Z,56.20
2018-08-10T18:45:23.150Z,56.40
2018-08-10T18:48:27.693Z,56.90
2018-08-10T18:51:32.162Z,56.60
2018-08-10T18:54:36.682Z,55.90
2018-08-10T18:57:41.150Z,56.60
2018-08-10T19:00:45.633Z,57.20
2018-08-10T19:03:50.118Z,56.90
2018-08-10T19:06:54.699Z,57.50
2018-08-10T19:09:59.185Z,58.00
2018-08-10T19:13:03.670Z,58.20
2018-08-10T19:16:08.267Z,57.70
2018-08-10T19:19:12.701Z,56.80
2018-08-10T19:22:17.197Z,57.80
2018-08-10T19:25:21.673Z,57.00
2018-08-10T19:28:26.122Z,58.10
2018-08-10T19:31:30.609Z,58.20
2018-08-10T19:34:35.111Z,58.10
2018-08-10T19:37:40.044Z,59.00
2018-08-10T19:40:44.525Z,58.60
2018-08-10T19:43:48.960Z,58.20
2018-08-10T19:46:53.575Z,58.90
2018-08-10T19:49:57.961Z,59.10
2018-08-10T19:53:02.545Z,59.60
2018-08-10T19:56:11.979Z,59.70
2018-08-10T19:59:16.438Z,59.50
2018-08-10T20:02:20.874Z,61.00
2018-08-10T20:05:25.356Z,60.50
2018-08-10T20:08:29.912Z,61.60
2018-08-10T20:11:34.529Z,62.20
2018-08-10T20:14:39.030Z,61.50
2018-08-10T20:17:43.896Z,62.30
2018-08-10T20:20:48.410Z,61.10
2018-08-10T20:23:52.900Z,61.30
2018-08-10T20:26:57.373Z,61.00
2018-08-10T20:30:01.900Z,60.40
2018-08-10T20:33:06.441Z,62.20
2018-08-10T20:36:10.952Z,61.80
2018-08-10T20:39:15.478Z,62.40
2018-08-10T20:42:19.990Z,62.90
2018-08-10T20:45:24.533Z,64.40
2018-08-10T20:48:29.025Z,63.20
2018-08-10T20:51:33.644Z,62.70
2018-08-10T20:54:38.114Z,62.70
2018-08-10T20:57:43.042Z,64.30
2018-08-10T21:00:47.570Z,64.20
2018-08-10T21:03:52.192Z,64.00
2018-08-10T21:06:56.626Z,64.00
2018-08-10T21:10:01.194Z,64.30
2018-08-10T21:13:05.678Z,63.70
2018-08-10T21:16:10.369Z,64.50
2018-08-10T21:19:15.180Z,64.40
2018-08-10T21:22:19.638Z,64.30
2018-08-10T21:25:24.253Z,66.10
2018-08-10T21:28:28.745Z,66.80
2018-08-10T21:31:33.197Z,65.80
2018-08-10T21:34:37.625Z,65.90
2018-08-10T21:37:42.192Z,65.80
2018-08-10T21:40:46.629Z,65.50
2018-08-10T21:43:51.136Z,67.50
2018-08-10T21:46:55.558Z,67.20
2018-08-10T21:50:00.194Z,67.50
2018-08-10T21:53:04.689Z,67.30
2018-08-10T21:56:09.136Z,67.90
2018-08-10T21:59:13.665Z,69.00
2018-08-10T22:02:19.253Z,69.30
2018-08-10T22:05:24.692Z,69.20
2018-08-10T22:08:29.497Z,70.20
2018-08-10T22:11:33.990Z,70.10
2018-08-10T22:14:43.726Z,69.10
2018-08-10T22:17:53.521Z,69.50
2018-08-10T22:20:58.219Z,69.20
2018-08-10T22:24:02.632Z,69.90
2018-08-10T22:27:07.097Z,70.40
2018-08-10T22:30:11.623Z,70.40
2018-08-10T22:33:16.150Z,71.20
2018-08-10T22:36:20.649Z,70.70
2018-08-10T22:39:25.153Z,70.10
2018-08-10T22:42:29.624Z,70.30
2018-08-10T22:45:34.081Z,70.80
2018-08-10T22:48:38.577Z,70.10
2018-08-10T22:51:43.099Z,70.30
2018-08-10T22:54:47.625Z,70.20
2018-08-10T22:57:52.048Z,71.40
2018-08-10T23:00:56.574Z,70.10
2018-08-10T23:04:01.006Z,71.00
2018-08-10T23:07:05.523Z,71.50
2018-08-10T23:10:12.035Z,72.00
2018-08-10T23:13:16.520Z,71.30
2018-08-10T23:16:21.048Z,70.80
2018-08-10T23:19:25.573Z,71.60
2018-08-10T23:22:30.098Z,71.50
2018-08-10T23:25:34.624Z,71.70
2018-08-10T23:28:39.149Z,71.30
2018-08-10T23:31:43.589Z,71.70
2018-08-10T23:34:48.099Z,71.60
2018-08-10T23:37:52.551Z,70.80
2018-08-10T23:40:56.991Z,71.00
2018-08-10T23:44:01.414Z,71.40
2018-08-10T23:47:05.924Z,71.10
2018-08-10T23:50:19.205Z,71.50
2018-08-10T23:53:23.667Z,71.90
2018-08-10T23:56:28.176Z,71.70
2018-08-10T23:59:32.599Z,70.80
